createdAt,value
2022-12-18T00:01:51.862Z,77.73
2022-12-18T00:04:37.429Z,77.92
2022-12-18T00:07:22.927Z,77.52
2022-12-18T00:10:08.830Z,76.58
2022-12-18T00:12:53.960Z,76.44
2022-12-18T00:15:40.239Z,77.57
2022-12-18T00:18:25.610Z,77.60
2022-12-18T00:21:13.124Z,77.82
2022-12-18T00:23:59.954Z,78.01
2022-12-18T00:26:44.985Z,77.66
2022-12-18T00:29:30.405Z,77.53
2022-12-18T00:32:15.565Z,78.13
2022-12-18T00:35:00.554Z,77.92
2022-12-18T00:37:46.092Z,78.30
2022-12-18T00:40:31.050Z,79.21
2022-12-18T00:43:16.744Z,79.12
2022-12-18T00:46:01.964Z,79.17
2022-12-18T00:48:47.343Z,78.80
2022-12-18T00:51:32.428Z,78.30
2022-12-18T00:54:18.563Z,77.80
2022-12-18T00:57:03.797Z,77.28
2022-12-18T00:59:48.959Z,77.80
2022-12-18T01:02:34.395Z,78.26
2022-12-18T01:05:19.757Z,77.99
2022-12-18T01:08:05.038Z,77.47
2022-12-18T01:10:50.205Z,77.88
2022-12-18T01:13:36.298Z,78.10
2022-12-18T01:16:23.251Z,77.66
2022-12-18T01:19:08.379Z,77.60
2022-12-18T01:21:53.631Z,77.22
2022-12-18T01:24:39.143Z,77.11
2022-12-18T01:27:24.518Z,77.63
2022-12-18T01:30:11.396Z,77.58
2022-12-18T01:32:56.649Z,78.55
2022-12-18T01:35:43.268Z,77.38
2022-12-18T01:38:32.004Z,77.32
2022-12-18T01:41:20.555Z,77.57
2022-12-18T01:44:44.274Z,77.83
2022-12-18T01:47:34.164Z,77.55
2022-12-18T01:50:31.499Z,77.45
2022-12-18T01:53:23.497Z,76.39
2022-12-18T01:56:12.459Z,76.94
2022-12-18T01:59:04.590Z,76.78
2022-12-18T02:01:49.874Z,77.76
2022-12-18T02:04:36.247Z,77.33
2022-12-18T02:07:33.221Z,77.25
2022-12-18T02:10:57.858Z,78.07
2022-12-18T02:14:20.772Z,77.47
2022-12-18T02:17:18.857Z,77.06
2022-12-18T02:20:31.612Z,77.51
2022-12-18T02:23:46.282Z,77.91
2022-12-18T02:26:54.145Z,78.19
2022-12-18T02:29:57.648Z,78.08
2022-12-18T02:32:50.482Z,77.80
2022-12-18T02:35:37.305Z,77.49
2022-12-18T02:38:24.319Z,77.78
2022-12-18T02:41:12.274Z,77.67
2022-12-18T02:44:00.064Z,76.79
2022-12-18T02:46:51.164Z,76.81
2022-12-18T02:49:42.795Z,77.31
2022-12-18T02:52:35.165Z,77.04
2022-12-18T02:55:41.392Z,76.64
2022-12-18T02:58:52.712Z,77.80
2022-12-18T03:02:18.317Z,78.48
2022-12-18T03:05:13.951Z,78.18
2022-12-18T03:08:23.034Z,77.94
2022-12-18T03:11:11.822Z,77.58
2022-12-18T03:13:58.779Z,76.80
2022-12-18T03:16:45.607Z,77.28
2022-12-18T03:19:33.636Z,77.63
2022-12-18T03:22:22.916Z,77.80
2022-12-18T03:25:14.978Z,77.94
2022-12-18T03:28:03.092Z,78.02
2022-12-18T03:30:54.387Z,77.98
2022-12-18T03:34:00.096Z,77.87
2022-12-18T03:36:54.069Z,77.90
2022-12-18T03:39:42.355Z,78.07
2022-12-18T03:42:38.289Z,77.68
2022-12-18T03:45:36.780Z,76.55
2022-12-18T03:48:38.824Z,77.15
2022-12-18T03:51:31.592Z,76.47
2022-12-18T03:54:18.188Z,77.38
2022-12-18T03:57:16.733Z,76.83
2022-12-18T04:00:09.325Z,77.41
2022-12-18T04:03:13.082Z,77.26
2022-12-18T04:06:07.411Z,77.20
2022-12-18T04:08:53.349Z,77.53
2022-12-18T04:11:45.314Z,78.00
2022-12-18T04:14:36.470Z,77.32
2022-12-18T04:17:23.827Z,78.32
2022-12-18T04:20:09.947Z,78.13
2022-12-18T04:22:58.601Z,77.88
2022-12-18T04:25:48.665Z,78.33
2022-12-18T04:28:41.455Z,78.04
2022-12-18T04:31:27.305Z,77.95
2022-12-18T04:34:12.500Z,77.70
2022-12-18T04:37:03.858Z,77.66
2022-12-18T04:39:49.951Z,77.23
2022-12-18T04:42:42.812Z,77.48
2022-12-18T04:45:28.246Z,77.19
2022-12-18T04:48:13.349Z,77.54
2022-12-18T04:50:59.102Z,77.58
2022-12-18T04:53:44.348Z,77.93
2022-12-18T04:56:32.263Z,78.44
2022-12-18T04:59:17.535Z,78.43
2022-12-18T05:02:02.858Z,78.16
2022-12-18T05:04:48.373Z,77.23
2022-12-18T05:07:33.854Z,76.76
2022-12-18T05:10:19.182Z,77.16
2022-12-18T05:13:04.662Z,77.82
2022-12-18T05:15:53.320Z,77.37
2022-12-18T05:18:39.102Z,78.21
2022-12-18T05:21:24.491Z,78.33
2022-12-18T05:24:10.071Z,78.02
2022-12-18T05:26:55.268Z,77.54
2022-12-18T05:29:40.431Z,77.96
2022-12-18T05:32:25.822Z,78.30
2022-12-18T05:35:12.137Z,79.02
2022-12-18T05:37:57.452Z,78.66
2022-12-18T05:40:44.348Z,79.52
2022-12-18T05:43:29.849Z,78.65
2022-12-18T05:46:18.429Z,78.82
2022-12-18T05:49:03.792Z,78.53
2022-12-18T05:51:49.036Z,78.86
2022-12-18T05:54:34.526Z,78.28
2022-12-18T05:57:19.604Z,78.30
2022-12-18T06:00:05.421Z,77.49
2022-12-18T06:02:57.419Z,77.76
2022-12-18T06:05:50.853Z,77.57
2022-12-18T06:08:42.929Z,77.23
2022-12-18T06:11:31.456Z,76.73
2022-12-18T06:14:18.147Z,76.75
2022-12-18T06:17:03.464Z,77.80
2022-12-18T06:19:48.716Z,77.68
2022-12-18T06:22:35.833Z,77.85
2022-12-18T06:25:21.185Z,77.55
2022-12-18T06:28:06.785Z,77.95
2022-12-18T06:30:52.041Z,78.33
2022-12-18T06:33:37.694Z,78.46
2022-12-18T06:36:23.169Z,77.75
2022-12-18T06:39:08.172Z,78.43
2022-12-18T06:41:54.635Z,79.07
2022-12-18T06:44:40.086Z,78.60
2022-12-18T06:47:25.469Z,78.65
2022-12-18T06:50:11.281Z,79.04
2022-12-18T06:52:56.635Z,79.46
2022-12-18T06:55:42.001Z,79.22
2022-12-18T06:58:27.997Z,79.19
2022-12-18T07:01:14.294Z,79.67
2022-12-18T07:03:59.916Z,79.88
2022-12-18T07:06:44.879Z,78.89
2022-12-18T07:09:30.216Z,79.54
2022-12-18T07:12:15.945Z,78.69
2022-12-18T07:15:01.062Z,79.14
2022-12-18T07:17:46.419Z,78.98
2022-12-18T07:20:31.786Z,79.35
2022-12-18T07:23:17.260Z,79.41
2022-12-18T07:26:10.900Z,78.83
2022-12-18T07:28:58.425Z,78.85
2022-12-18T07:31:43.772Z,78.54
2022-12-18T07:34:28.893Z,79.55
2022-12-18T07:37:14.200Z,79.52
2022-12-18T07:40:00.090Z,79.81
2022-12-18T07:42:45.720Z,79.57
2022-12-18T07:45:31.074Z,78.61
2022-12-18T07:48:16.431Z,78.82
2022-12-18T07:51:03.693Z,78.52
2022-12-18T07:53:49.688Z,78.76
2022-12-18T07:56:37.083Z,78.64
2022-12-18T07:59:22.670Z,79.39
2022-12-18T08:02:08.029Z,79.48
2022-12-18T08:04:53.353Z,79.51
2022-12-18T08:07:38.770Z,78.77
2022-12-18T08:10:24.004Z,78.64
2022-12-18T08:13:09.093Z,78.88
2022-12-18T08:16:04.517Z,79.83
2022-12-18T08:18:50.636Z,79.35
2022-12-18T08:21:36.247Z,78.83
2022-12-18T08:24:21.616Z,78.80
2022-12-18T08:27:28.296Z,79.64
2022-12-18T08:30:12.908Z,78.65
2022-12-18T08:32:59.012Z,78.76
2022-12-18T08:35:46.039Z,78.75
2022-12-18T08:38:33.061Z,79.73
2022-12-18T08:41:19.199Z,79.01
2022-12-18T08:44:23.048Z,78.48
2022-12-18T08:47:08.960Z,78.40
2022-12-18T08:49:54.276Z,79.00
2022-12-18T08:52:39.502Z,78.80
2022-12-18T08:55:25.861Z,78.53
2022-12-18T08:58:11.633Z,77.47
2022-12-18T09:01:05.801Z,77.44
2022-12-18T09:03:51.815Z,77.83
2022-12-18T09:06:37.742Z,77.15
2022-12-18T09:09:23.352Z,77.20
2022-12-18T09:12:08.771Z,77.17
2022-12-18T09:14:54.157Z,77.14
2022-12-18T09:17:39.306Z,77.85
2022-12-18T09:20:25.417Z,76.96
2022-12-18T09:23:10.879Z,77.13
2022-12-18T09:26:00.321Z,76.03
2022-12-18T09:28:45.911Z,76.56
2022-12-18T09:31:31.433Z,76.85
2022-12-18T09:34:17.629Z,77.12
2022-12-18T09:37:03.168Z,77.46
2022-12-18T09:39:48.422Z,77.75
2022-12-18T09:42:34.085Z,76.77
2022-12-18T09:45:19.491Z,77.04
2022-12-18T09:48:06.332Z,77.91
2022-12-18T09:50:55.997Z,78.29
2022-12-18T09:53:45.565Z,79.49
2022-12-18T09:56:38.552Z,79.37
2022-12-18T09:59:40.761Z,78.82
2022-12-18T10:02:30.907Z,78.91
2022-12-18T10:05:42.989Z,92.21
2022-12-18T10:08:52.812Z,100.00
2022-12-18T10:11:56.092Z,95.24
2022-12-18T10:14:51.571Z,85.49
2022-12-18T10:17:49.900Z,81.89
2022-12-18T10:20:44.666Z,78.23
2022-12-18T10:23:51.752Z,78.14
2022-12-18T10:26:37.345Z,78.22
2022-12-18T10:29:23.522Z,77.17
2022-12-18T10:32:16.216Z,76.38
2022-12-18T10:35:01.938Z,77.58
2022-12-18T10:38:06.057Z,77.86
2022-12-18T10:40:59.955Z,77.75
2022-12-18T10:43:45.646Z,77.87
2022-12-18T10:46:31.065Z,77.28
2022-12-18T10:49:28.327Z,77.05
2022-12-18T10:52:21.645Z,77.21
2022-12-18T10:55:17.570Z,77.10
2022-12-18T10:58:29.824Z,77.18
2022-12-18T11:01:22.710Z,78.19
2022-12-18T11:04:10.361Z,79.10
2022-12-18T11:07:06.936Z,79.44
2022-12-18T11:10:02.056Z,78.45
2022-12-18T11:12:49.311Z,78.81
2022-12-18T11:15:34.778Z,78.70
2022-12-18T11:18:29.866Z,78.19
2022-12-18T11:21:15.681Z,78.27
2022-12-18T11:24:01.161Z,78.64
2022-12-18T11:26:46.393Z,78.51
2022-12-18T11:29:46.210Z,78.34
2022-12-18T11:32:38.652Z,77.65
2022-12-18T11:35:37.019Z,77.30
2022-12-18T11:38:31.638Z,78.42
2022-12-18T11:41:54.478Z,77.81
2022-12-18T11:45:00.426Z,78.18
2022-12-18T11:47:45.457Z,78.11
2022-12-18T11:50:43.708Z,78.24
2022-12-18T11:53:31.224Z,79.00
2022-12-18T11:56:25.816Z,78.38
2022-12-18T11:59:34.046Z,78.44
2022-12-18T12:02:38.077Z,78.91
2022-12-18T12:05:46.049Z,78.28
2022-12-18T12:08:58.341Z,79.00
2022-12-18T12:12:10.193Z,79.09
2022-12-18T12:15:03.971Z,78.54
2022-12-18T12:18:00.068Z,78.43
2022-12-18T12:20:57.448Z,78.41
2022-12-18T12:23:46.257Z,78.11
2022-12-18T12:26:44.582Z,77.80
2022-12-18T12:30:04.879Z,77.88
2022-12-18T12:33:11.030Z,78.61
2022-12-18T12:36:22.733Z,77.94
2022-12-18T12:39:15.381Z,78.06
2022-12-18T12:42:24.363Z,78.58
2022-12-18T12:45:20.614Z,78.33
2022-12-18T12:48:14.849Z,78.66
2022-12-18T12:51:05.039Z,78.28
2022-12-18T12:53:50.954Z,77.67
2022-12-18T12:56:58.866Z,78.05
2022-12-18T13:00:09.242Z,78.34
2022-12-18T13:03:18.896Z,78.44
2022-12-18T13:06:14.694Z,78.52
2022-12-18T13:09:01.501Z,78.49
2022-12-18T13:12:06.955Z,78.51
2022-12-18T13:14:52.035Z,78.49
2022-12-18T13:17:38.031Z,79.29
2022-12-18T13:20:34.788Z,79.37
2022-12-18T13:23:26.080Z,78.77
2022-12-18T13:26:17.473Z,78.49
2022-12-18T13:29:05.829Z,78.41
2022-12-18T13:31:51.995Z,78.52
2022-12-18T13:34:37.906Z,78.95
2022-12-18T13:37:32.403Z,78.58
2022-12-18T13:40:39.482Z,78.74
2022-12-18T13:43:29.502Z,79.06
2022-12-18T13:46:24.489Z,78.83
2022-12-18T13:49:12.912Z,79.11
2022-12-18T13:52:01.187Z,79.08
2022-12-18T13:54:52.741Z,79.14
2022-12-18T13:57:39.720Z,78.15
2022-12-18T14:00:29.511Z,78.06
2022-12-18T14:03:24.360Z,78.03
2022-12-18T14:06:13.344Z,77.76
2022-12-18T14:09:00.874Z,77.48
2022-12-18T14:11:51.166Z,77.45
2022-12-18T14:14:37.512Z,78.39
2022-12-18T14:17:23.947Z,78.30
2022-12-18T14:20:16.235Z,78.82
2022-12-18T14:23:03.187Z,78.70
2022-12-18T14:25:48.773Z,77.98
2022-12-18T14:28:33.874Z,77.56
2022-12-18T14:31:31.439Z,77.90
2022-12-18T14:34:20.248Z,78.17
2022-12-18T14:37:05.747Z,77.42
2022-12-18T14:40:08.680Z,78.10
2022-12-18T14:42:55.843Z,77.79
2022-12-18T14:45:45.259Z,77.78
2022-12-18T14:48:43.012Z,78.25
2022-12-18T14:51:31.337Z,78.45
2022-12-18T14:54:19.817Z,78.81
2022-12-18T14:57:18.728Z,79.09
2022-12-18T15:00:16.047Z,78.80
2022-12-18T15:03:01.496Z,79.46
2022-12-18T15:05:47.261Z,81.13
2022-12-18T15:08:37.692Z,80.51
2022-12-18T15:11:35.637Z,88.87
2022-12-18T15:14:32.594Z,93.93
2022-12-18T15:17:23.939Z,99.69
2022-12-18T15:20:11.827Z,94.69
2022-12-18T15:22:57.131Z,89.95
2022-12-18T15:25:42.630Z,84.10
2022-12-18T15:28:34.736Z,81.41
2022-12-18T15:31:29.733Z,80.17
2022-12-18T15:34:22.508Z,80.15
2022-12-18T15:37:08.964Z,80.68
2022-12-18T15:39:54.386Z,79.59
2022-12-18T15:42:58.373Z,79.49
2022-12-18T15:45:46.183Z,79.49
2022-12-18T15:48:35.246Z,79.49
2022-12-18T15:51:30.025Z,79.33
2022-12-18T15:54:17.021Z,79.15
2022-12-18T15:57:21.214Z,79.42
2022-12-18T16:00:15.879Z,79.58
2022-12-18T16:03:13.151Z,78.93
2022-12-18T16:06:07.408Z,78.77
2022-12-18T16:08:52.838Z,78.53
2022-12-18T16:11:46.960Z,77.75
2022-12-18T16:14:35.194Z,77.45
2022-12-18T16:17:20.635Z,78.61
2022-12-18T16:20:09.089Z,78.32
2022-12-18T16:22:54.599Z,78.69
2022-12-18T16:25:40.185Z,78.14
2022-12-18T16:28:25.326Z,77.78
2022-12-18T16:31:10.658Z,77.30
2022-12-18T16:34:20.158Z,77.28
2022-12-18T16:37:10.059Z,77.17
2022-12-18T16:39:55.606Z,77.83
2022-12-18T16:42:42.479Z,77.51
2022-12-18T16:45:33.910Z,78.45
2022-12-18T16:48:19.279Z,78.12
2022-12-18T16:51:05.987Z,78.36
2022-12-18T16:53:51.472Z,78.37
2022-12-18T16:56:37.010Z,78.51
2022-12-18T16:59:24.204Z,78.03
2022-12-18T17:02:19.187Z,77.97
2022-12-18T17:05:09.396Z,78.28
2022-12-18T17:07:57.347Z,78.53
2022-12-18T17:10:42.804Z,78.82
2022-12-18T17:13:28.165Z,78.67
2022-12-18T17:16:13.870Z,79.23
2022-12-18T17:18:59.191Z,79.11
2022-12-18T17:21:47.828Z,79.51
2022-12-18T17:24:35.422Z,79.58
2022-12-18T17:27:21.014Z,80.53
2022-12-18T17:30:06.967Z,79.89
2022-12-18T17:32:52.483Z,79.91
2022-12-18T17:35:37.689Z,79.99
2022-12-18T17:38:25.065Z,79.56
2022-12-18T17:41:11.810Z,79.78
2022-12-18T17:44:03.430Z,79.52
2022-12-18T17:46:48.635Z,79.34
2022-12-18T17:49:33.598Z,79.59
2022-12-18T17:52:19.143Z,79.40
2022-12-18T17:55:04.614Z,79.13
2022-12-18T17:57:50.215Z,79.72
2022-12-18T18:00:35.431Z,79.68
2022-12-18T18:03:21.366Z,80.00
2022-12-18T18:06:07.166Z,79.58
2022-12-18T18:08:53.721Z,80.09
2022-12-18T18:11:57.926Z,79.93
2022-12-18T18:14:43.394Z,79.63
2022-12-18T18:17:28.688Z,79.88
2022-12-18T18:20:22.363Z,79.38
2022-12-18T18:23:08.062Z,79.92
2022-12-18T18:25:53.404Z,79.53
2022-12-18T18:28:39.133Z,79.86
2022-12-18T18:31:25.438Z,79.71
2022-12-18T18:34:15.337Z,79.54
2022-12-18T18:37:01.979Z,79.96
2022-12-18T18:39:47.372Z,79.39
2022-12-18T18:42:32.379Z,79.37
2022-12-18T18:45:17.788Z,79.33
2022-12-18T18:48:03.379Z,79.03
2022-12-18T18:50:59.162Z,79.04
2022-12-18T18:53:46.838Z,78.66
2022-12-18T18:59:37.402Z,79.04
2022-12-18T19:02:23.003Z,79.44
2022-12-18T19:05:08.791Z,78.95
2022-12-18T19:07:55.362Z,79.23
2022-12-18T19:10:41.702Z,79.17
2022-12-18T19:13:32.139Z,78.96
2022-12-18T19:16:17.653Z,79.18
2022-12-18T19:19:03.247Z,78.79
2022-12-18T19:21:49.956Z,78.70
2022-12-18T19:24:35.757Z,79.09
2022-12-18T19:27:21.045Z,79.01
2022-12-18T19:30:07.164Z,79.03
2022-12-18T19:32:52.666Z,78.57
2022-12-18T19:35:37.871Z,77.86
2022-12-18T19:38:23.505Z,77.97
2022-12-18T19:41:08.899Z,77.98
2022-12-18T19:43:54.527Z,77.88
2022-12-18T19:46:42.857Z,77.81
2022-12-18T19:49:28.487Z,78.02
2022-12-18T19:52:16.042Z,78.01
2022-12-18T19:55:01.992Z,77.72
2022-12-18T19:57:47.258Z,78.45
2022-12-18T20:00:32.738Z,78.24
2022-12-18T20:03:27.167Z,78.17
2022-12-18T20:06:20.203Z,77.34
2022-12-18T20:09:06.736Z,77.18
2022-12-18T20:11:51.998Z,77.44
2022-12-18T20:14:37.478Z,77.78
2022-12-18T20:17:23.185Z,77.39
2022-12-18T20:20:08.742Z,77.26
2022-12-18T20:22:54.221Z,76.98
2022-12-18T20:25:39.367Z,76.65
2022-12-18T20:28:25.257Z,76.26
2022-12-18T20:31:13.695Z,76.23
2022-12-18T20:34:01.708Z,75.72
2022-12-18T20:36:49.029Z,76.00
2022-12-18T20:39:35.078Z,76.21
2022-12-18T20:42:21.318Z,76.67
2022-12-18T20:45:07.146Z,76.17
2022-12-18T20:47:54.920Z,75.56
2022-12-18T20:50:40.311Z,74.88
2022-12-18T20:53:25.398Z,76.21
2022-12-18T20:56:14.758Z,75.56
2022-12-18T20:59:03.360Z,75.58
2022-12-18T21:01:49.927Z,75.70
2022-12-18T21:04:35.321Z,75.63
2022-12-18T21:07:20.771Z,75.27
2022-12-18T21:10:06.800Z,75.50
2022-12-18T21:13:00.044Z,75.96
2022-12-18T21:15:47.192Z,75.55
2022-12-18T21:18:32.295Z,75.71
2022-12-18T21:21:21.868Z,74.79
2022-12-18T21:24:12.126Z,75.33
2022-12-18T21:26:57.534Z,75.48
2022-12-18T21:29:43.549Z,74.84
2022-12-18T21:32:29.882Z,74.92
2022-12-18T21:35:19.066Z,74.79
2022-12-18T21:38:06.345Z,74.81
2022-12-18T21:40:51.164Z,74.92
2022-12-18T21:43:58.547Z,74.65
2022-12-18T21:46:51.528Z,74.32
2022-12-18T21:49:40.555Z,100.00
2022-12-18T21:52:32.600Z,100.00
2022-12-18T21:55:18.517Z,100.00
2022-12-18T21:58:03.657Z,94.90
2022-12-18T22:00:50.020Z,87.75
2022-12-18T22:03:35.577Z,82.77
2022-12-18T22:06:20.570Z,79.05
2022-12-18T22:09:06.648Z,76.35
2022-12-18T22:11:52.451Z,75.55
2022-12-18T22:14:38.264Z,74.46
2022-12-18T22:17:23.519Z,74.03
2022-12-18T22:20:10.174Z,74.38
2022-12-18T22:22:55.477Z,73.89
2022-12-18T22:25:41.045Z,73.96
2022-12-18T22:28:45.016Z,74.05
2022-12-18T22:31:30.246Z,73.67
2022-12-18T22:34:19.385Z,73.39
2022-12-18T22:37:07.045Z,73.38
2022-12-18T22:39:52.466Z,73.03
2022-12-18T22:42:40.482Z,72.92
2022-12-18T22:45:26.708Z,73.64
2022-12-18T22:48:11.823Z,73.59
2022-12-18T22:50:59.524Z,73.46
2022-12-18T22:53:45.814Z,73.53
2022-12-18T22:56:33.752Z,73.46
2022-12-18T22:59:21.283Z,72.75
2022-12-18T23:02:06.726Z,72.32
2022-12-18T23:04:52.282Z,71.95
2022-12-18T23:07:37.799Z,72.18
2022-12-18T23:10:23.181Z,71.98
2022-12-18T23:13:08.510Z,72.82
2022-12-18T23:15:54.247Z,72.78
2022-12-18T23:18:40.840Z,72.45
2022-12-18T23:21:26.070Z,73.20
2022-12-18T23:24:12.855Z,73.04
2022-12-18T23:26:57.928Z,72.61
2022-12-18T23:29:43.192Z,72.86
2022-12-18T23:32:30.613Z,72.48
2022-12-18T23:35:18.436Z,72.05
2022-12-18T23:38:03.500Z,72.52
2022-12-18T23:40:48.960Z,72.03
2022-12-18T23:43:38.418Z,72.76
2022-12-18T23:46:30.185Z,72.18
2022-12-18T23:49:16.150Z,71.75
2022-12-18T23:52:01.615Z,72.08
2022-12-18T23:54:47.305Z,72.03
2022-12-18T23:57:32.334Z,71.07
